AirNav   Air Wisconsin pilot careers
 
 1321 users online  

KCLW Clearwater Air Park
Clearwater, Florida, USA

GOING TO CLEARWATER?


FAA INFORMATION EFFECTIVE 26 APRIL 2018

Location

FAA Identifier: CLW
Lat/Long: 27-58-37.9700N / 082-45-32.6050W
27-58.632833N / 082-45.543417W
27.9772139 / -82.7590569
(estimated)
Elevation: 71 ft. / 21.6 m (surveyed)
Variation: 04W (2000)
From city: 3 miles NE of CLEARWATER, FL
Time zone: UTC -4 (UTC -5 during Standard Time)
Zip code: 33755

Airport Operations

Airport use: Open to the public
Activation date: 10/1942
Control tower: no
ARTCC: MIAMI CENTER
FSS: SAINT PETERSBURG FLIGHT SERVICE STATION
NOTAMs facility: CLW (NOTAM-D service available)
Attendance: 0700-2300
LNDGS & TKOFS PERMITTED 0700-2300.
Pattern altitude: 1071 ft. MSL
Wind indicator: lighted
Segmented circle: yes
SEG CIRCLE PAINTED ON RWY.
Lights: ACTVT MIRL RY 16/34 - CTAF.

Airport Communications

CTAF/UNICOM: 123.0
WX AWOS-3P: 119.225 (727-449-2184)
TAMPA APPROACH: 125.3
TAMPA DEPARTURE: 125.3
WX ASOS at PIE (6 nm SE): PHONE 727-531-3456
WX ASOS at TPA (12 nm E): PHONE 813-873-7228
WX ASOS at SPG (15 nm SE): 118.875 (727-821-4334)
WX AWOS-3 at TPF (17 nm E): 118.925 (813-251-6824)

Nearby radio navigation aids

VOR radial/distance  VOR name  Freq  Var
PIEr321/5.7ST PETERSBURG VORTAC116.4005W
SRQr348/35.8SARASOTA VOR/DME117.0005W
LALr268/39.5LAKELAND VORTAC116.0001E

 
NDB name  Hdg/Dist  Freq  Var  ID
CAPOK255/3.136005WPI .--. ..
COSME247/14.036805WTP - .--.

Airport Services

Fuel available: 100LL JET-A
Parking: tiedowns
Airframe service: MAJOR
Powerplant service: MAJOR
Bottled oxygen: NONE
Bulk oxygen: NONE

Runway Information

Runway 16/34

Dimensions: 4108 x 75 ft. / 1252 x 23 m
Surface: asphalt, in excellent condition
Runway edge lights: medium intensity
RUNWAY 16  RUNWAY 34
Latitude: 27-58.938000N27-58.327667N
Longitude: 082-45.709667W082-45.377167W
Elevation: 65.9 ft.69.3 ft.
Gradient: 0.1%0.1%
Traffic pattern: leftright
Displaced threshold: 357 ft.846 ft.
Markings: basic, in good conditionbasic, in good condition
Visual slope indicator: 4-box VASI on left (3.50 degrees glide path)4-box VASI on right (3.50 degrees glide path)
Touchdown point: yes, no lightsyes, no lights
Obstructions: 60 ft. trees, 842 ft. from runway, 125 ft. left of centerline, 10:1 slope to clear
RWY 16 APCH RATIO 20:1 TO DSPLCD THLD..
58 ft. trees, 534 ft. from runway, 65 ft. left of centerline, 5:1 slope to clear
RWY 34 APCH RATIO 24:1 TO DSPLCD THLD.

Airport Ownership and Management from official FAA records

Ownership: Publicly-owned
Owner: CITY OF CLEARWATER
P.O. BOX 4748, ATTN; MARINE DEPARTMENT
CLEARWATER, FL 33758-4748
Phone 727-462-6954
CONTACT PERSON: WILLIAM MORRIS 727-462-6954.
Manager: GORDON WILLS
25 CAUSEWAY BLVD., P.O. BOX4748
CLEARWATER, FL 33767
Phone 727-462-6954
AIRPORT PHYSICAL ADDRESS: 1000 NORTH HERCULES AVENUE, CLEARWATER, FL 33765 727-462-6954 FAX: 727-462-6957

Airport Operational Statistics

Aircraft based on the field: 60
Single engine airplanes: 52
Multi engine airplanes: 7
Helicopters: 1
    
Aircraft operations: avg 139/day *
90% local general aviation
10% transient general aviation
<1% air taxi
<1% military
* for 12-month period ending 13 December 2016

Additional Remarks

FULL STOP LNDG ONLY. NO TOUCH & GO.
RY 16/34 TREES PENETRATE 7:1 TRANS SFC W SIDE.
NOISE ABATEMENT PROCEDURES IN EFFECT CTC FBO 727-443-3433.

Instrument Procedures

NOTE: All procedures below are presented as PDF files. If you need a reader for these files, you should download the free Adobe Reader.

NOT FOR NAVIGATION. Please procure official charts for flight.
FAA instrument procedures published for use from 26 April 2018 at 901Z to 24 May 2018 at 0900Z.

 
STARs - Standard Terminal Arrivals
BRDGE EIGHT   download (235KB)

Other nearby airports with instrument procedures:

KPIE - St Pete-Clearwater International Airport (6 nm SE)
KTPA - Tampa International Airport (12 nm E)
KSPG - Albert Whitted Airport (15 nm SE)
KMCF - MacDill Air Force Base (15 nm SE)
KTPF - Peter O Knight Airport (17 nm E)
 
Loc | Ops | Rwys | IFR | FBO | Links
Com | Nav | Svcs | Stats | Notes


 
Area around KCLW (Clearwater Air Park)
 
Road maps at: MapQuest Bing Google
 
Aerial photo
WARNING: Photo may not be current or correct
Aerial photo of KCLW (Clearwater Air Park)
Photo by David King
Taken in October 2013
looking northwest from 1,500 ft.

Do you have a better or more recent aerial photo of Clearwater Air Park that you would like to share? If so, please send us your photo.

 
Sectional chart

 
Airport distance calculator
Flying to Clearwater Air Park? Find the distance to fly.

From to KCLW

Sunrise and sunset
Times for 22-May-2018
 Local
(UTC-4)
 Zulu
(UTC)
Morning civil twilight06:1310:13
Sunrise06:3910:39
Sunset20:1600:16
Evening civil twilight20:4200:42

Current date and time
Zulu (UTC)  22-May-2018 22:05:09
Local (UTC-4)  22-May-2018 18:05:09
 
METAR
KCLW 222155Z AUTO 12008KT 10SM SCT010 OVC050 23/22 A3005 RMK AO2
KPIE 
5nm SE 
222153Z 13009KT 9SM -RA FEW009 OVC060 25/24 A3005 RMK AO2 LTG DSNT N RAB24 SLP176 P0001 T02500239 $
KTPA 
12nm E 
222153Z 00000KT 9SM -RA FEW007 FEW035 OVC085 23/22 A3007 RMK AO2 LTG DSNT NW TSE19B30E51 SLP181 P0008 T02330222
KSPG 
14nm SE 
222153Z 12008KT 10SM -RA SCT035 BKN042 OVC075 23/22 A3004 RMK AO2 LTG DSNT N SLP171 P0000 T02280217
KMCF 
15nm SE 
222101Z AUTO 15007KT 10SM -RA FEW005 OVC055 23/22 A3005 RMK AO2 LTG DSNT N TSE01 SLP179 FZRANO $
KTPF 
17nm E 
222155Z AUTO 00000KT 10SM -RA SCT044 BKN075 BKN090 23/21 A3006 RMK AO2
TAF
KPIE 
5nm SE 
221736Z 2218/2318 13010KT P6SM VCTS SCT020CB BKN040 TEMPO 2218/2222 VRB15G25KT 3SM TSRA BKN020CB FM222300 13008KT P6SM VCSH SCT025 BKN070 FM230300 11006KT P6SM SCT070 SCT250 FM231400 12008KT P6SM SCT015 BKN250 FM231700 10007KT P6SM VCTS SCT025CB BKN040
KTPA 
12nm E 
221736Z 2218/2324 15008KT P6SM VCTS SCT020CB BKN040 TEMPO 2218/2222 VRB15G25KT 3SM TSRA BKN020CB FM222300 13006KT P6SM VCSH SCT025 BKN070 FM230300 10004KT P6SM SCT070 SCT250 FM231400 14006KT P6SM SCT015 BKN250 FM231700 21007KT P6SM VCTS SCT025CB BKN040
KMCF 
15nm SE 
221942Z 2219/2322 14006KT 9999 SCT035 BKN045 QNH3002INS BECMG 2219/2220 14009KT 8000 -SHRA VCTS SCT025CB BKN035 QNH3000INS TEMPO 2219/2222 10015G20KT 6000 -TSRA BKN020CB BECMG 2301/2302 16006KT 9999 NSW FEW015 SCT050 QNH3001INS BECMG 2306/2307 15006KT 9999 BKN018 OVC035 QNH3003INS BECMG 2312/2313 13009KT 9999 SCT012 SCT095 QNH3005INS BECMG 2320/2321 13009KT 8000 -SHRA FEW025 BKN080 QNH3007INS TX29/2220Z TN21/2311Z
NOTAMs
Click for the latest NOTAMs
NOTAMs are issued by the DoD/FAA and will open in a separate window not controlled by AirNav.

 

 
 

FBO, Fuel Providers, and Aircraft Ground Support

  
 Business Name 
 
 Contact 
 
 Services / Description 
 
Fuel Prices
 
Comments
  
 Clearwater Airpark, Inc.
UNICOM 123.00
727-443-3433
[web site]
[email]
Clearwater Airpark has been named "2014 General Aviation Airport of the Year" by the Florida Dept. of Transportation.

Located in Clearwater, facilitating your needs with no landing fees, a new longer runway, now 4108' x 75', crew car and full service Jet A and 100LL at superior pricing.
 
AirBoss™ fuel program  
 
More info about Clearwater Airpark, Inc.
Phillips 66
100LL Jet A
FS $5.59 $4.58 
GUARANTEED
AirBossMEMBERS
ONLY
Discounts
LoginJoin
 
   5 read write
FS=Full service
Update Fuel Prices
 

Would you like to see your business listed on this page?

 If your business provides an interesting product or service to pilots, flight crews, aircraft, or users of the Clearwater Air Park, you should consider listing it here.  To start the listing process, click on the button below
 
Add a business
 

Other Pages about Clearwater Air Park

www.clearwaterairpark.net
 
Update a link
 
Copyright © AirNav, LLC. All rights reserved. Privacy Policy  Contact